Time;durP1;ratioP1;P1;durP2;ratioP2;P2;SDS_P1;SDS_P2;PMS_P1;PMS_P2;Temp;Humidity;BMP_temperature;BMP_pressure;BME280_temperature;BME280_humidity;BME280_pressure;Samples;Min_cycle;Max_cycle;Signal;HPM_P1;HPM_P2
2023/05/08 00:01:57;;;;;;;9.97;8.83;;;12.30;99.90;;;;;;5086979;28;20402;-72
2023/05/08 00:04:23;;;;;;;9.57;8.43;;;12.20;99.90;;;;;;5087235;28;20409;-73
2023/05/08 00:06:50;;;;;;;9.80;8.80;;;12.20;99.90;;;;;;5087497;28;20450;-73
2023/05/08 00:09:16;;;;;;;10.13;9.13;;;12.20;99.90;;;;;;5087814;28;20768;-73
2023/05/08 00:11:41;;;;;;;10.13;8.93;;;12.20;99.90;;;;;;5087511;28;20409;-73
2023/05/08 00:14:07;;;;;;;11.60;9.87;;;12.20;99.90;;;;;;5086007;28;20402;-73
2023/05/08 00:16:33;;;;;;;11.90;9.52;;;12.10;99.90;;;;;;5087183;28;20547;-72
2023/05/08 00:18:59;;;;;;;11.10;9.60;;;12.10;99.90;;;;;;5091704;28;20489;-73
2023/05/08 00:21:25;;;;;;;9.80;8.90;;;12.00;99.90;;;;;;5072928;28;20418;-72
2023/05/08 00:23:50;;;;;;;11.03;9.60;;;12.00;99.90;;;;;;5090601;28;20409;-72
2023/05/08 00:26:16;;;;;;;10.27;9.27;;;12.00;99.90;;;;;;5091831;28;20413;-73
2023/05/08 00:28:42;;;;;;;10.60;9.33;;;12.00;99.90;;;;;;5103014;28;20421;-72
2023/05/08 00:31:07;;;;;;;10.63;9.52;;;12.00;99.90;;;;;;5104170;28;20796;-73
2023/05/08 00:33:33;;;;;;;10.50;9.40;;;12.00;99.90;;;;;;5090934;28;20755;-73
2023/05/08 00:36:03;;;;;;;10.77;9.50;;;11.90;99.90;;;;;;5090155;28;20410;-72
2023/05/08 00:38:33;;;;;;;10.77;9.68;;;11.90;99.90;;;;;;5090233;28;20414;-72
2023/05/08 00:41:00;;;;;;;10.80;9.30;;;11.90;99.90;;;;;;5090422;28;20409;-73
2023/05/08 00:43:27;;;;;;;10.90;9.80;;;11.90;99.90;;;;;;5091010;28;20406;-73
2023/05/08 00:45:54;;;;;;;10.52;9.45;;;11.90;99.90;;;;;;5090804;28;20406;-73
2023/05/08 00:48:22;;;;;;;11.15;9.73;;;11.90;99.90;;;;;;5089346;28;20441;-73
2023/05/08 00:50:49;;;;;;;10.45;9.38;;;11.90;99.90;;;;;;5090745;28;20405;-72
2023/05/08 00:53:15;;;;;;;11.23;10.05;;;11.90;99.90;;;;;;5090988;28;20494;-73
2023/05/08 00:55:42;;;;;;;11.13;9.93;;;11.90;99.90;;;;;;5090044;28;20402;-73
2023/05/08 00:58:08;;;;;;;11.25;9.73;;;11.90;99.90;;;;;;5090987;28;20840;-73
2023/05/08 01:00:33;;;;;;;10.75;9.65;;;11.90;99.90;;;;;;5089923;28;20491;-72
2023/05/08 01:03:00;;;;;;;11.57;10.37;;;11.90;99.90;;;;;;5089744;28;20445;-73
2023/05/08 01:05:29;;;;;;;11.35;10.07;;;11.90;99.90;;;;;;5092168;28;20746;-72
2023/05/08 01:07:55;;;;;;;10.82;9.73;;;11.90;99.90;;;;;;5091309;28;20434;-73
2023/05/08 01:10:21;;;;;;;11.35;9.95;;;11.80;99.90;;;;;;5091377;28;20401;-73
2023/05/08 01:13:19;;;;;;;11.03;9.50;;;11.80;99.90;;;;;;5091564;28;20464;-73
2023/05/08 01:15:53;;;;;;;11.52;10.32;;;11.80;99.90;;;;;;5071776;28;20942;-73
2023/05/08 01:18:40;;;;;;;12.35;10.27;;;11.80;99.90;;;;;;5091362;28;20400;-72
2023/05/08 01:21:14;;;;;;;10.68;9.57;;;11.80;99.90;;;;;;5073303;28;20489;-72
2023/05/08 01:23:49;;;;;;;12.67;10.17;;;11.70;99.90;;;;;;5090771;28;20409;-72
2023/05/08 01:26:46;;;;;;;11.43;10.00;;;11.70;99.90;;;;;;5075746;28;20514;-72
2023/05/08 01:29:58;;;;;;;11.27;10.07;;;11.70;99.90;;;;;;5107789;28;20793;-72
2023/05/08 01:32:25;;;;;;;11.50;10.13;;;11.70;99.90;;;;;;5083392;28;20443;-72
2023/05/08 01:35:28;;;;;;;11.52;10.25;;;11.60;99.90;;;;;;5104842;28;20508;-72
2023/05/08 01:38:07;;;;;;;11.45;10.25;;;11.60;99.90;;;;;;5089715;28;20468;-73
2023/05/08 01:40:47;;;;;;;11.65;10.45;;;11.60;99.90;;;;;;5089676;28;21307;-72
2023/05/08 01:44:05;;;;;;;11.48;10.27;;;11.50;99.90;;;;;;5075174;28;20414;-73
2023/05/08 01:46:33;;;;;;;11.80;10.60;;;11.50;99.90;;;;;;5069437;28;20776;-72
2023/05/08 01:49:05;;;;;;;11.32;10.00;;;11.50;99.90;;;;;;5089442;28;20433;-72
2023/05/08 01:51:40;;;;;;;11.48;9.82;;;11.50;99.90;;;;;;5088465;28;20425;-73
2023/05/08 01:54:10;;;;;;;11.40;9.82;;;11.40;99.90;;;;;;5071500;28;20446;-72
2023/05/08 01:56:37;;;;;;;10.43;9.32;;;11.40;99.90;;;;;;5089703;28;20877;-72
2023/05/08 01:59:06;;;;;;;10.40;9.30;;;11.40;99.90;;;;;;5089588;28;20808;-73
2023/05/08 02:01:33;;;;;;;11.55;10.02;;;11.40;99.90;;;;;;5088874;28;20471;-72
2023/05/08 02:03:59;;;;;;;11.23;9.07;;;11.40;99.90;;;;;;5088541;28;20433;-73
2023/05/08 02:06:27;;;;;;;10.88;9.65;;;11.40;99.90;;;;;;5089969;28;20406;-72
2023/05/08 02:08:54;;;;;;;11.60;9.57;;;11.30;99.90;;;;;;5089345;28;20418;-73
2023/05/08 02:11:23;;;;;;;11.43;9.27;;;11.30;99.90;;;;;;5087804;28;20413;-72
2023/05/08 02:13:49;;;;;;;11.93;9.80;;;11.30;99.90;;;;;;5089575;28;20441;-73
2023/05/08 02:16:16;;;;;;;9.85;8.80;;;11.20;99.90;;;;;;5088062;28;20398;-72
2023/05/08 02:18:47;;;;;;;10.38;8.98;;;11.20;99.90;;;;;;5088938;28;20397;-72
2023/05/08 02:21:14;;;;;;;11.68;9.70;;;11.20;99.90;;;;;;5088941;28;20402;-72
2023/05/08 02:23:42;;;;;;;9.57;8.57;;;11.20;99.90;;;;;;5083067;28;20436;-73
2023/05/08 02:26:09;;;;;;;10.55;9.02;;;11.20;99.90;;;;;;5082082;28;20406;-73
2023/05/08 02:28:36;;;;;;;10.88;9.32;;;11.20;99.90;;;;;;5074935;28;20425;-72
2023/05/08 02:31:03;;;;;;;10.03;8.73;;;11.10;99.90;;;;;;5088753;28;20903;-72
2023/05/08 02:33:29;;;;;;;9.93;8.90;;;11.10;99.90;;;;;;5089045;28;20776;-73
2023/05/08 02:35:56;;;;;;;9.57;8.43;;;11.10;99.90;;;;;;5088787;28;20402;-73
2023/05/08 02:38:24;;;;;;;10.17;8.73;;;11.10;99.90;;;;;;5093996;28;20953;-72
2023/05/08 02:40:54;;;;;;;9.70;8.70;;;11.00;99.90;;;;;;5087669;28;20406;-73
2023/05/08 02:43:20;;;;;;;8.93;8.00;;;11.00;99.90;;;;;;5086182;28;21016;-73
2023/05/08 02:45:57;;;;;;;9.00;8.10;;;11.00;99.90;;;;;;5088838;28;20400;-72
2023/05/08 02:48:39;;;;;;;9.68;8.68;;;11.00;99.90;;;;;;5070202;28;21644;-72
2023/05/08 02:51:24;;;;;;;9.27;8.30;;;11.00;99.90;;;;;;5088596;28;20402;-73
2023/05/08 02:54:01;;;;;;;13.93;9.13;;;10.90;99.90;;;;;;5089455;28;20434;-73
2023/05/08 02:56:36;;;;;;;11.25;8.43;;;11.00;99.90;;;;;;5087971;28;20409;-73
2023/05/08 02:59:21;;;;;;;9.93;8.82;;;10.90;99.90;;;;;;5080413;28;20532;-73
2023/05/08 03:01:51;;;;;;;9.50;8.50;;;10.90;99.90;;;;;;5097047;28;20409;-73
2023/05/08 03:04:39;;;;;;;9.23;8.23;;;10.90;99.90;;;;;;5097232;28;20409;-73
2023/05/08 03:07:05;;;;;;;9.90;8.82;;;10.90;99.90;;;;;;5076654;28;20424;-73
2023/05/08 03:09:41;;;;;;;10.25;8.90;;;10.80;99.90;;;;;;5086594;28;20462;-73
2023/05/08 03:12:13;;;;;;;9.95;8.63;;;10.80;99.90;;;;;;5080823;28;20420;-73
2023/05/08 03:14:45;;;;;;;10.27;9.13;;;10.80;99.90;;;;;;5088114;28;20438;-73
2023/05/08 03:17:15;;;;;;;9.98;8.98;;;10.80;99.90;;;;;;5069831;28;20406;-73
2023/05/08 03:19:44;;;;;;;9.88;8.88;;;10.80;99.90;;;;;;5088150;28;20402;-73
2023/05/08 03:22:10;;;;;;;11.77;9.52;;;10.70;99.90;;;;;;5088588;28;20436;-73
2023/05/08 03:24:38;;;;;;;10.40;9.30;;;10.70;99.90;;;;;;5087612;28;20398;-73
2023/05/08 03:27:06;;;;;;;11.15;9.07;;;10.70;99.90;;;;;;5088314;28;20406;-73
2023/05/08 03:29:33;;;;;;;14.52;10.00;;;10.70;99.90;;;;;;5085383;28;20430;-73
2023/05/08 03:32:01;;;;;;;11.32;9.30;;;10.70;99.90;;;;;;5088389;28;20405;-72
2023/05/08 03:34:28;;;;;;;10.93;9.82;;;10.60;99.90;;;;;;5087074;28;20946;-73
2023/05/08 03:36:55;;;;;;;10.70;9.43;;;10.60;99.90;;;;;;5088671;28;20417;-73
2023/05/08 03:39:21;;;;;;;10.53;9.47;;;10.60;99.90;;;;;;5088399;28;20476;-73
2023/05/08 03:41:48;;;;;;;11.00;9.57;;;10.60;99.90;;;;;;5087963;28;20941;-72
2023/05/08 03:44:15;;;;;;;10.80;9.65;;;10.50;99.90;;;;;;5086584;28;20410;-73
2023/05/08 03:46:41;;;;;;;11.05;9.93;;;10.50;99.90;;;;;;5086512;28;20767;-73
2023/05/08 03:49:08;;;;;;;10.68;9.52;;;10.50;99.90;;;;;;5092797;28;20595;-73
2023/05/08 03:51:38;;;;;;;12.65;10.25;;;10.50;99.90;;;;;;5097964;28;20413;-73
2023/05/08 03:54:03;;;;;;;11.23;9.93;;;10.40;99.90;;;;;;5099289;27;20548;-73
2023/05/08 03:56:29;;;;;;;12.80;10.93;;;10.50;99.90;;;;;;5101935;28;20404;-73
2023/05/08 03:59:13;;;;;;;11.53;9.80;;;10.50;99.90;;;;;;5099051;28;21011;-73
2023/05/08 04:01:43;;;;;;;11.43;10.23;;;10.40;99.90;;;;;;5092661;28;20404;-73
2023/05/08 04:04:17;;;;;;;12.23;10.93;;;10.40;99.90;;;;;;5099495;28;20800;-73
2023/05/08 04:06:49;;;;;;;13.18;10.80;;;10.40;99.90;;;;;;5091832;28;20417;-72
2023/05/08 04:09:36;;;;;;;12.10;10.82;;;10.40;99.90;;;;;;5091115;28;20429;-73
2023/05/08 04:12:26;;;;;;;11.73;10.20;;;10.40;99.90;;;;;;5091607;28;20406;-73
2023/05/08 04:15:06;;;;;;;11.75;10.30;;;10.40;99.90;;;;;;5087080;28;20468;-73
2023/05/08 04:17:40;;;;;;;12.23;10.87;;;10.30;99.90;;;;;;5090877;28;20409;-73
2023/05/08 04:20:11;;;;;;;11.65;10.45;;;10.30;99.90;;;;;;5090060;28;20919;-73
2023/05/08 04:22:39;;;;;;;11.20;9.85;;;10.40;99.90;;;;;;5072899;28;20413;-73
2023/05/08 04:25:06;;;;;;;11.48;10.27;;;10.30;99.90;;;;;;5091815;28;20427;-73
2023/05/08 04:27:33;;;;;;;11.63;10.43;;;10.30;99.90;;;;;;5083624;28;20481;-73
2023/05/08 04:30:00;;;;;;;11.50;10.30;;;10.30;99.90;;;;;;5090191;28;20903;-73
2023/05/08 04:32:27;;;;;;;11.68;10.32;;;10.30;99.90;;;;;;5089936;28;20454;-73
2023/05/08 04:34:54;;;;;;;10.70;9.27;;;10.30;99.90;;;;;;5089566;28;20519;-73
2023/05/08 04:37:28;;;;;;;11.77;10.20;;;10.40;99.90;;;;;;5091681;28;21007;-73
2023/05/08 04:39:53;;;;;;;11.82;10.25;;;10.40;99.90;;;;;;5091081;28;20485;-73
2023/05/08 04:42:20;;;;;;;11.10;9.90;;;10.40;99.90;;;;;;5091549;28;20525;-72
2023/05/08 04:44:46;;;;;;;11.95;9.75;;;10.40;99.90;;;;;;5090315;28;20515;-72
2023/05/08 04:47:12;;;;;;;12.00;9.60;;;10.40;99.90;;;;;;5097682;28;20495;-72
2023/05/08 04:49:38;;;;;;;11.48;10.27;;;10.50;99.90;;;;;;5091239;28;20442;-72
2023/05/08 04:52:05;;;;;;;11.63;9.67;;;10.50;99.90;;;;;;5095837;27;20406;-73
2023/05/08 04:54:31;;;;;;;10.98;9.88;;;10.50;99.90;;;;;;5089290;28;20927;-73
2023/05/08 04:56:57;;;;;;;11.45;9.77;;;10.50;99.90;;;;;;5090880;28;20445;-73
2023/05/08 04:59:23;;;;;;;11.70;9.80;;;10.60;99.90;;;;;;5089478;28;20417;-73
2023/05/08 05:01:49;;;;;;;11.30;9.57;;;10.60;99.90;;;;;;5089996;28;20398;-73
2023/05/08 05:04:15;;;;;;;12.23;10.13;;;10.60;99.90;;;;;;5090080;28;20458;-72
2023/05/08 05:06:41;;;;;;;10.63;9.50;;;10.60;99.90;;;;;;5098413;28;20948;-73
2023/05/08 05:09:06;;;;;;;10.73;9.47;;;10.70;99.90;;;;;;5100186;28;20496;-73
2023/05/08 05:11:32;;;;;;;10.88;9.73;;;10.70;99.90;;;;;;5103065;28;20878;-73
2023/05/08 05:13:58;;;;;;;11.20;10.00;;;10.70;99.90;;;;;;5097355;28;20410;-73
2023/05/08 05:16:23;;;;;;;12.02;9.88;;;10.80;99.90;;;;;;5099015;28;20461;-73
2023/05/08 05:18:49;;;;;;;11.18;9.45;;;10.80;99.90;;;;;;5100877;28;20398;-71
2023/05/08 05:21:15;;;;;;;11.67;10.43;;;10.80;99.90;;;;;;5096980;28;20398;-71
2023/05/08 05:23:41;;;;;;;11.30;10.10;;;10.90;99.90;;;;;;5094690;28;20417;-71
2023/05/08 05:26:06;;;;;;;11.47;10.10;;;10.90;99.90;;;;;;5086638;28;20408;-71
2023/05/08 05:28:32;;;;;;;11.85;10.48;;;10.90;99.90;;;;;;5087854;28;20430;-71
2023/05/08 05:30:59;;;;;;;11.52;10.32;;;11.00;99.90;;;;;;5089994;28;20652;-71
2023/05/08 05:33:24;;;;;;;10.88;9.77;;;11.00;99.90;;;;;;5090209;28;20496;-71
2023/05/08 05:35:50;;;;;;;10.93;9.73;;;11.00;99.90;;;;;;5089593;28;20405;-71
2023/05/08 05:38:16;;;;;;;11.43;10.03;;;11.00;99.90;;;;;;5091673;28;20402;-71
2023/05/08 05:40:41;;;;;;;11.48;10.27;;;11.10;99.90;;;;;;5090524;28;20398;-71
2023/05/08 05:43:07;;;;;;;11.17;9.90;;;11.10;99.90;;;;;;5090021;28;20411;-72
2023/05/08 05:45:32;;;;;;;11.90;9.77;;;11.10;99.90;;;;;;5089897;28;20417;-72
2023/05/08 05:47:58;;;;;;;12.03;10.00;;;11.10;99.90;;;;;;5089004;28;20430;-72
2023/05/08 05:50:26;;;;;;;11.35;10.10;;;11.20;99.90;;;;;;5088397;28;20826;-72
2023/05/08 05:52:51;;;;;;;11.13;10.02;;;11.20;99.90;;;;;;5089896;28;20410;-72
2023/05/08 05:55:17;;;;;;;11.80;10.40;;;11.20;99.90;;;;;;5088562;28;20406;-71
2023/05/08 05:57:43;;;;;;;13.60;10.40;;;11.20;99.90;;;;;;5072095;28;20413;-72
2023/05/08 06:00:10;;;;;;;11.45;10.30;;;11.20;99.90;;;;;;5089399;28;20505;-72
2023/05/08 06:02:36;;;;;;;11.25;10.05;;;11.20;99.90;;;;;;5089955;28;20406;-71
2023/05/08 06:05:02;;;;;;;11.55;9.90;;;11.20;99.90;;;;;;5089737;28;20467;-72
2023/05/08 06:07:28;;;;;;;12.75;10.00;;;11.20;99.90;;;;;;5088911;28;20485;-72
2023/05/08 06:09:55;;;;;;;12.05;10.85;;;11.20;99.90;;;;;;5089667;28;20860;-72
2023/05/08 06:12:21;;;;;;;11.32;10.13;;;11.30;99.90;;;;;;5089840;28;20410;-71
2023/05/08 06:14:47;;;;;;;11.07;9.88;;;11.30;99.90;;;;;;5088724;28;20439;-72
2023/05/08 06:17:12;;;;;;;12.57;10.48;;;11.20;99.90;;;;;;5089345;28;20402;-72
2023/05/08 06:19:38;;;;;;;12.90;10.73;;;11.20;99.90;;;;;;5087602;28;20409;-72
2023/05/08 06:22:03;;;;;;;11.30;10.10;;;11.20;99.90;;;;;;5089166;28;20402;-72
2023/05/08 06:24:29;;;;;;;12.05;10.85;;;11.30;99.90;;;;;;5089424;28;20405;-72
2023/05/08 06:26:55;;;;;;;11.20;9.67;;;11.30;99.90;;;;;;5088847;28;20459;-72
2023/05/08 06:29:21;;;;;;;12.40;10.85;;;11.30;99.90;;;;;;5088875;28;20456;-72
2023/05/08 06:31:46;;;;;;;11.32;10.13;;;11.30;99.90;;;;;;5089671;28;20456;-72
2023/05/08 06:34:12;;;;;;;12.20;11.00;;;11.30;99.90;;;;;;5087760;28;20764;-72
2023/05/08 06:36:38;;;;;;;11.75;10.55;;;11.30;99.90;;;;;;5088972;28;20403;-72
2023/05/08 06:39:07;;;;;;;13.90;11.50;;;11.30;99.90;;;;;;5086801;28;20405;-72
2023/05/08 06:41:33;;;;;;;12.90;10.90;;;11.30;99.90;;;;;;5089112;28;20965;-72
2023/05/08 06:43:59;;;;;;;12.87;11.47;;;11.30;99.90;;;;;;5088977;28;20398;-73
2023/05/08 06:46:24;;;;;;;11.90;10.73;;;11.30;99.90;;;;;;5088887;28;20398;-72
2023/05/08 06:48:50;;;;;;;13.17;11.77;;;11.30;99.90;;;;;;5076326;28;20486;-72
2023/05/08 06:51:16;;;;;;;13.43;12.02;;;11.40;99.90;;;;;;5095222;28;20440;-72
2023/05/08 06:53:42;;;;;;;13.23;11.83;;;11.40;99.90;;;;;;5098221;28;20416;-72
2023/05/08 06:56:07;;;;;;;14.02;12.15;;;11.50;99.90;;;;;;5096016;28;20413;-72
2023/05/08 06:58:33;;;;;;;15.75;12.77;;;11.50;99.90;;;;;;5098938;28;20412;-72
2023/05/08 07:01:00;;;;;;;15.17;12.70;;;11.50;99.90;;;;;;5094511;28;20891;-72
2023/05/08 07:03:26;;;;;;;14.07;12.60;;;11.70;99.90;;;;;;5097738;28;20494;-72
2023/05/08 07:05:52;;;;;;;13.97;12.33;;;11.80;99.90;;;;;;5096483;28;20402;-72
2023/05/08 07:08:18;;;;;;;13.50;12.13;;;11.90;99.90;;;;;;5098560;28;20450;-72
2023/05/08 07:10:44;;;;;;;13.90;12.50;;;12.00;99.90;;;;;;5096821;28;20769;-72
2023/05/08 07:13:10;;;;;;;14.20;12.02;;;12.10;99.90;;;;;;5092056;28;20401;-72
2023/05/08 07:15:35;;;;;;;12.77;11.47;;;12.20;99.90;;;;;;5096300;28;20402;-72
2023/05/08 07:18:01;;;;;;;13.00;11.68;;;12.30;99.90;;;;;;5099168;28;20392;-73
2023/05/08 07:20:27;;;;;;;13.50;12.10;;;12.40;99.90;;;;;;5095916;28;20403;-72
2023/05/08 07:22:52;;;;;;;13.18;11.77;;;12.50;99.90;;;;;;5098613;28;20912;-72
2023/05/08 07:25:18;;;;;;;12.87;11.57;;;12.60;99.90;;;;;;5077958;28;20399;-72
2023/05/08 07:27:43;;;;;;;12.38;11.18;;;12.60;99.90;;;;;;5099796;28;20519;-72
2023/05/08 07:30:10;;;;;;;13.40;12.00;;;12.70;99.90;;;;;;5095274;28;20421;-72
2023/05/08 07:32:37;;;;;;;12.73;11.52;;;12.80;99.90;;;;;;5099460;28;20557;-72
2023/05/08 07:35:04;;;;;;;13.40;12.00;;;12.80;99.90;;;;;;5078564;28;20497;-72
2023/05/08 07:37:30;;;;;;;13.63;12.23;;;12.80;99.90;;;;;;5099171;28;20413;-72
2023/05/08 07:39:56;;;;;;;13.48;11.88;;;12.90;99.90;;;;;;5097014;28;20413;-72
2023/05/08 07:42:22;;;;;;;13.80;12.30;;;12.90;99.90;;;;;;5099581;28;20412;-72
2023/05/08 07:44:47;;;;;;;14.82;12.48;;;13.00;99.90;;;;;;5097492;28;20410;-72
2023/05/08 07:47:13;;;;;;;13.52;12.15;;;13.00;99.90;;;;;;5092459;28;20406;-72
2023/05/08 07:49:39;;;;;;;13.57;12.17;;;13.00;99.90;;;;;;5094700;28;20950;-72
2023/05/08 07:52:04;;;;;;;14.67;12.40;;;13.10;99.90;;;;;;5087723;28;20402;-72
2023/05/08 07:54:30;;;;;;;13.32;11.93;;;13.20;99.90;;;;;;5087413;28;20433;-72
2023/05/08 07:56:56;;;;;;;13.37;12.00;;;13.30;99.90;;;;;;5087675;28;20394;-72
2023/05/08 07:59:21;;;;;;;12.87;11.57;;;13.40;99.90;;;;;;5095475;28;20992;-72
2023/05/08 08:01:47;;;;;;;13.60;12.27;;;13.50;99.90;;;;;;5095561;28;20487;-72
2023/05/08 08:04:16;;;;;;;13.65;12.25;;;13.50;99.90;;;;;;5097213;28;20976;-72
2023/05/08 08:06:41;;;;;;;14.13;12.63;;;13.60;99.90;;;;;;5100591;28;20411;-72
2023/05/08 08:09:07;;;;;;;13.83;12.43;;;13.60;99.90;;;;;;5087768;28;20434;-72
2023/05/08 08:11:33;;;;;;;14.35;12.82;;;13.70;99.90;;;;;;5101650;28;20419;-72
2023/05/08 08:13:58;;;;;;;14.13;12.63;;;13.80;99.90;;;;;;5098354;28;20397;-73
2023/05/08 08:16:24;;;;;;;14.60;13.00;;;14.00;99.90;;;;;;5094403;28;20406;-72
2023/05/08 08:18:51;;;;;;;13.87;12.37;;;14.10;99.90;;;;;;5093295;28;20401;-72
2023/05/08 08:21:17;;;;;;;13.70;12.18;;;14.30;99.90;;;;;;5101801;28;20403;-72
2023/05/08 08:23:43;;;;;;;14.33;12.93;;;14.50;99.90;;;;;;5097399;28;21512;-72
2023/05/08 08:26:09;;;;;;;13.73;12.32;;;14.60;99.90;;;;;;5101336;28;20498;-72
2023/05/08 08:28:34;;;;;;;13.77;12.43;;;14.90;99.90;;;;;;5096213;28;20465;-72
2023/05/08 08:31:00;;;;;;;15.20;12.90;;;15.20;99.90;;;;;;5102530;28;20549;-73
2023/05/08 08:33:28;;;;;;;14.33;12.83;;;15.50;99.90;;;;;;5097974;28;20443;-72
2023/05/08 08:35:54;;;;;;;14.70;13.30;;;15.60;99.90;;;;;;5102678;28;20420;-72
2023/05/08 08:38:20;;;;;;;14.38;13.02;;;15.70;99.90;;;;;;5100045;28;20398;-72
2023/05/08 08:40:46;;;;;;;14.50;13.00;;;15.70;99.90;;;;;;5098131;28;20405;-73
2023/05/08 08:43:12;;;;;;;13.68;12.30;;;15.70;99.90;;;;;;5102832;28;20413;-72
2023/05/08 08:45:38;;;;;;;13.60;12.27;;;15.80;99.90;;;;;;5107648;28;20522;-72
2023/05/08 08:48:07;;;;;;;14.27;12.97;;;15.80;99.90;;;;;;5091496;28;20457;-72
2023/05/08 08:50:35;;;;;;;14.27;12.88;;;15.80;99.90;;;;;;5090314;28;20406;-72
2023/05/08 08:53:12;;;;;;;14.35;12.95;;;15.90;99.90;;;;;;5092098;28;20478;-72
2023/05/08 08:55:45;;;;;;;14.27;12.80;;;16.00;99.90;;;;;;5101257;28;20410;-72
2023/05/08 08:58:21;;;;;;;15.52;14.02;;;16.00;99.90;;;;;;5089831;28;20405;-72
2023/05/08 09:00:48;;;;;;;15.47;13.77;;;16.20;99.90;;;;;;5097873;28;20523;-72
2023/05/08 09:03:14;;;;;;;14.48;13.07;;;16.30;99.90;;;;;;5104094;28;20898;-72
2023/05/08 09:05:41;;;;;;;15.40;13.90;;;16.40;99.90;;;;;;5098248;28;20401;-73
2023/05/08 09:08:08;;;;;;;15.23;13.70;;;16.50;99.90;;;;;;5104491;28;20802;-72
2023/05/08 09:10:35;;;;;;;15.98;14.48;;;16.60;99.90;;;;;;5099347;28;20904;-72
2023/05/08 09:13:02;;;;;;;16.25;14.65;;;16.70;99.90;;;;;;5097289;28;20466;-73
2023/05/08 09:15:27;;;;;;;14.30;12.90;;;16.80;99.90;;;;;;5098021;28;20394;-72
2023/05/08 09:17:53;;;;;;;15.32;13.82;;;16.90;99.90;;;;;;5086406;28;20415;-72
2023/05/08 09:20:18;;;;;;;14.80;13.30;;;16.90;99.90;;;;;;5098146;28;20406;-72
2023/05/08 09:22:45;;;;;;;14.63;13.23;;;16.90;99.90;;;;;;5104864;28;20409;-72
2023/05/08 09:25:10;;;;;;;16.95;13.82;;;17.10;99.90;;;;;;5097782;28;20402;-72
2023/05/08 09:27:36;;;;;;;15.50;14.00;;;17.10;99.90;;;;;;5103887;28;20401;-72
2023/05/08 09:30:07;;;;;;;14.60;13.20;;;17.20;99.90;;;;;;5097377;28;20410;-73
2023/05/08 09:32:36;;;;;;;14.93;13.48;;;17.30;99.90;;;;;;5104212;28;20851;-72
2023/05/08 09:35:03;;;;;;;15.00;13.50;;;17.50;99.90;;;;;;5099377;28;20950;-73
2023/05/08 09:37:29;;;;;;;15.00;13.60;;;17.60;99.90;;;;;;5104622;28;20480;-72
2023/05/08 09:40:15;;;;;;;15.80;14.20;;;17.70;99.90;;;;;;5094904;28;20493;-72
2023/05/08 09:42:41;;;;;;;15.23;13.80;;;17.80;99.90;;;;;;5100651;28;20409;-72
2023/05/08 09:45:07;;;;;;;13.67;12.37;;;18.00;99.90;;;;;;5101341;28;20410;-73
2023/05/08 09:47:36;;;;;;;14.52;13.15;;;18.30;99.90;;;;;;5094178;28;20405;-72
2023/05/08 09:50:06;;;;;;;14.30;12.77;;;18.60;99.90;;;;;;5090784;28;20426;-73
2023/05/08 09:52:33;;;;;;;14.80;13.40;;;18.90;99.90;;;;;;5091505;28;20410;-73
2023/05/08 09:55:05;;;;;;;14.90;13.50;;;19.10;99.90;;;;;;5094916;28;20902;-72
2023/05/08 09:57:32;;;;;;;14.95;13.57;;;19.20;99.90;;;;;;5092404;28;20965;-73
2023/05/08 10:00:10;;;;;;;14.20;12.90;;;19.30;99.90;;;;;;5086385;28;20429;-73
2023/05/08 10:02:38;;;;;;;14.43;13.15;;;19.50;99.90;;;;;;5091222;28;20487;-73
2023/05/08 10:05:20;;;;;;;;;;;19.90;99.90;;;;;;5091164;28;20059;-73
2023/05/08 10:07:46;;;;;;;;;;;20.30;99.90;;;;;;5089519;28;19928;-73
2023/05/08 10:10:12;;;;;;;;;;;20.70;99.90;;;;;;5090547;28;20010;-73
2023/05/08 10:12:39;;;;;;;;;;;20.90;99.90;;;;;;5091901;28;20010;-73
2023/05/08 10:15:04;;;;;;;;;;;21.10;99.90;;;;;;5090648;28;19985;-73
2023/05/08 10:17:54;;;;;;;;;;;21.30;99.90;;;;;;5072884;28;20319;-73
2023/05/08 10:20:20;;;;;;;;;;;21.40;99.90;;;;;;5080701;28;19924;-73
2023/05/08 10:22:47;;;;;;;;;;;21.50;99.90;;;;;;5073300;28;20340;-73
2023/05/08 10:25:15;;;;;;;;;;;21.60;99.90;;;;;;5094964;28;19965;-73
2023/05/08 10:27:46;;;;;;;;;;;21.60;99.90;;;;;;5090390;28;19923;-73
2023/05/08 10:30:12;;;;;;;;;;;21.60;99.90;;;;;;5089816;28;19920;-73
2023/05/08 10:32:43;;;;;;;;;;;21.70;99.90;;;;;;5088294;28;20104;-73
2023/05/08 10:35:09;;;;;;;;;;;21.90;99.90;;;;;;5090910;28;20153;-73
2023/05/08 10:37:35;;;;;;;;;;;22.00;99.90;;;;;;5090548;28;19920;-73
2023/05/08 10:40:02;;;;;;;;;;;22.20;99.90;;;;;;5091206;28;19919;-73
2023/05/08 10:42:28;;;;;;;12.30;11.05;;;22.40;99.90;;;;;;5090631;28;19920;-73
2023/05/08 10:44:54;;;;;;;12.93;11.65;;;22.50;99.90;;;;;;5089956;28;20404;-73
2023/05/08 10:47:35;;;;;;;13.43;12.23;;;22.50;99.90;;;;;;5088885;28;20408;-73
2023/05/08 10:50:13;;;;;;;13.70;12.20;;;22.50;99.90;;;;;;5089008;28;20414;-74
2023/05/08 10:53:08;;;;;;;14.30;13.00;;;22.50;99.90;;;;;;5086693;28;20410;-73
2023/05/08 10:55:39;;;;;;;13.65;12.45;;;22.50;99.90;;;;;;5083800;28;20410;-73
2023/05/08 10:58:28;;;;;;;13.23;12.02;;;22.80;99.90;;;;;;5100009;28;20401;-73
2023/05/08 11:01:00;;;;;;;13.98;12.68;;;23.00;99.90;;;;;;5094328;28;20416;-73
2023/05/08 11:03:26;;;;;;;;;;;23.20;99.90;;;;;;5102275;28;20055;-73
2023/05/08 11:05:52;;;;;;;;;;;23.40;99.90;;;;;;5097815;28;19920;-73
2023/05/08 11:08:23;;;;;;;;;;;23.60;99.90;;;;;;5102793;27;19923;-73
2023/05/08 11:10:58;;;;;;;;;;;23.70;99.90;;;;;;5099358;28;19927;-73
2023/05/08 11:13:32;;;;;;;;;;;23.90;99.90;;;;;;5099018;28;20046;-73
2023/05/08 11:15:58;;;;;;;;;;;23.90;99.90;;;;;;5100797;28;19978;-73
2023/05/08 11:18:24;;;;;;;;;;;23.80;99.90;;;;;;5099336;28;20382;-73
2023/05/08 11:20:57;;;;;;;;;;;24.00;99.90;;;;;;5101452;28;19920;-73
2023/05/08 11:23:23;;;;;;;;;;;24.10;99.90;;;;;;5089150;28;19920;-73
2023/05/08 11:25:57;;;;;;;;;;;24.20;99.90;;;;;;5092136;28;19920;-73
2023/05/08 11:28:23;;;;;;;;;;;24.20;99.90;;;;;;5089427;28;19920;-73
2023/05/08 11:30:51;;;;;;;;;;;24.10;99.90;;;;;;5104152;28;19943;-73
2023/05/08 11:33:18;;;;;;;;;;;24.20;99.90;;;;;;5097808;28;19920;-73
2023/05/08 11:36:07;;;;;;;;;;;24.30;99.90;;;;;;5096452;28;20008;-73
2023/05/08 11:38:34;;;;;;;;;;;24.40;99.90;;;;;;5073342;28;20016;-73
2023/05/08 11:41:01;;;;;;;;;;;24.50;99.90;;;;;;5082022;28;19930;-73
2023/05/08 11:43:34;;;;;;;;;;;24.60;99.90;;;;;;5096033;28;19999;-73
2023/05/08 11:46:04;;;;;;;;;;;24.60;99.90;;;;;;5089920;28;21272;-73
2023/05/08 11:48:30;;;;;;;;;;;24.70;99.90;;;;;;5100556;28;19972;-72
2023/05/08 11:50:57;;;;;;;;;;;24.70;99.10;;;;;;5097330;28;19920;-72
2023/05/08 11:53:23;;;;;;;;;;;24.70;99.90;;;;;;5094208;28;19920;-72
2023/05/08 11:55:49;;;;;;;;;;;24.70;99.90;;;;;;5094219;28;19920;-73
2023/05/08 11:58:15;;;;;;;;;;;24.90;99.90;;;;;;5098315;28;20274;-73
2023/05/08 12:00:43;;;;;;;;;;;24.90;99.90;;;;;;5096421;28;19927;-73
2023/05/08 12:03:13;;;;;;;;;;;24.90;99.90;;;;;;5099119;28;20002;-73
2023/05/08 12:05:39;;;;;;;;;;;25.10;99.90;;;;;;5090742;28;20016;-73
2023/05/08 12:08:05;;;;;;;;;;;25.30;99.90;;;;;;5095098;28;19931;-73
2023/05/08 12:10:31;;;;;;;;;;;25.30;99.90;;;;;;5089275;28;20396;-73
2023/05/08 12:12:56;;;;;;;;;;;25.40;99.50;;;;;;5100908;28;20015;-73
2023/05/08 12:15:22;;;;;;;;;;;25.60;99.30;;;;;;5091830;28;21063;-73
2023/05/08 12:17:47;;;;;;;;;;;25.70;99.60;;;;;;5090767;28;19920;-73
2023/05/08 12:20:14;;;;;;;;;;;25.80;98.80;;;;;;5092007;28;20496;-73
2023/05/08 12:22:40;;;;;;;;;;;25.80;97.40;;;;;;5098081;28;20050;-73
2023/05/08 12:25:07;;;;;;;;;;;25.80;98.80;;;;;;5092021;28;19920;-73
2023/05/08 12:27:32;;;;;;;;;;;25.90;98.90;;;;;;5105419;28;19955;-73
2023/05/08 12:29:58;;;;;;;;;;;26.00;97.70;;;;;;5097267;28;20446;-73
2023/05/08 12:32:24;;;;;;;;;;;26.00;98.00;;;;;;5105107;28;19927;-73
2023/05/08 12:34:51;;;;;;;;;;;26.00;98.10;;;;;;5092124;28;20006;-73
2023/05/08 12:37:26;;;;;;;;;;;26.10;97.60;;;;;;5101104;28;19919;-73
2023/05/08 12:39:52;;;;;;;;;;;26.30;98.40;;;;;;5093653;28;19927;-73
2023/05/08 12:42:17;;;;;;;14.40;12.90;;;26.40;98.40;;;;;;5095750;28;19920;-73
2023/05/08 12:44:50;;;;;;;16.00;13.40;;;26.60;96.00;;;;;;5093032;28;20131;-73
2023/05/08 12:47:20;;;;;;;14.80;13.45;;;26.50;97.30;;;;;;5096200;28;20035;-74
2023/05/08 12:49:48;;;;;;;14.88;13.55;;;26.60;97.50;;;;;;5093643;28;20130;-73
2023/05/08 12:52:15;;;;;;;14.70;13.40;;;26.70;97.70;;;;;;5095428;28;20048;-73
2023/05/08 12:54:47;;;;;;;13.80;12.50;;;26.80;97.00;;;;;;5097949;28;20400;-73
2023/05/08 12:57:16;;;;;;;16.13;14.65;;;26.90;96.80;;;;;;5095634;28;20429;-73